createdAt,value
2018-07-01T00:00:08.318Z,0.00
2018-07-01T00:01:08.260Z,0.00
2018-07-01T00:02:08.243Z,0.00
2018-07-01T00:03:08.166Z,0.00
2018-07-01T00:04:08.121Z,0.00
2018-07-01T00:05:08.073Z,0.00
2018-07-01T00:06:08.060Z,0.00
2018-07-01T00:07:07.983Z,0.00
2018-07-01T00:08:07.969Z,0.00
2018-07-01T00:09:07.890Z,0.00
2018-07-01T00:10:07.841Z,0.00
2018-07-01T00:11:07.796Z,0.00
2018-07-01T00:12:07.749Z,0.00
2018-07-01T00:13:07.735Z,0.00
2018-07-01T00:14:07.659Z,0.00
2018-07-01T00:15:07.613Z,0.00
2018-07-01T00:16:07.566Z,0.00
2018-07-01T00:17:07.516Z,0.00
2018-07-01T00:18:07.516Z,0.00
2018-07-01T00:19:07.461Z,0.00
2018-07-01T00:20:07.382Z,0.00
2018-07-01T00:21:07.337Z,0.00
2018-07-01T00:22:07.286Z,0.00
2018-07-01T00:23:07.269Z,0.00
2018-07-01T00:24:07.196Z,0.00
2018-07-01T00:25:07.143Z,0.00
2018-07-01T00:26:07.100Z,0.00
2018-07-01T00:27:07.087Z,0.00
2018-07-01T00:28:07.010Z,0.00
2018-07-01T00:29:06.960Z,0.00
2018-07-01T00:30:06.912Z,0.00
2018-07-01T00:31:06.898Z,0.00
2018-07-01T00:32:06.822Z,0.00
2018-07-01T00:33:06.770Z,0.00
2018-07-01T00:34:06.725Z,0.00
2018-07-01T00:35:06.680Z,0.00
2018-07-01T00:36:06.664Z,0.00
2018-07-01T00:37:06.583Z,0.00
2018-07-01T00:38:06.539Z,0.00
2018-07-01T00:39:06.493Z,0.00
2018-07-01T00:40:06.479Z,0.00
2018-07-01T00:41:06.399Z,0.00
2018-07-01T00:42:06.355Z,0.00
2018-07-01T00:43:06.308Z,0.00
2018-07-01T00:44:06.294Z,0.00
2018-07-01T00:45:06.214Z,0.00
2018-07-01T00:46:06.250Z,0.00
2018-07-01T00:47:06.117Z,0.00
2018-07-01T00:48:06.072Z,0.00
2018-07-01T00:49:06.025Z,0.00
2018-07-01T00:50:06.009Z,0.00
2018-07-01T00:51:05.935Z,0.00
2018-07-01T00:52:05.918Z,0.00
2018-07-01T00:53:05.839Z,0.00
2018-07-01T00:54:05.794Z,0.00
2018-07-01T00:55:05.744Z,0.00
2018-07-01T00:56:05.698Z,0.00
2018-07-01T00:57:05.685Z,0.00
2018-07-01T00:58:05.608Z,0.00
2018-07-01T00:59:05.592Z,0.00
2018-07-01T01:00:05.516Z,0.00
2018-07-01T01:01:05.467Z,0.00
2018-07-01T01:02:05.430Z,0.00
2018-07-01T01:03:05.380Z,0.00
2018-07-01T01:04:05.358Z,0.00
2018-07-01T01:05:05.277Z,0.00
2018-07-01T01:06:05.359Z,0.00
2018-07-01T01:07:05.182Z,0.00
2018-07-01T01:08:05.169Z,0.00
2018-07-01T01:09:05.095Z,0.00
2018-07-01T01:10:05.045Z,0.00
2018-07-01T01:11:04.998Z,0.00
2018-07-01T01:12:04.950Z,0.00
2018-07-01T01:13:04.939Z,0.00
2018-07-01T01:14:04.860Z,0.00
2018-07-01T01:15:04.809Z,0.00
2018-07-01T01:16:04.764Z,0.00
2018-07-01T01:17:04.720Z,0.00
2018-07-01T01:18:04.706Z,0.00
2018-07-01T01:19:04.623Z,0.00
2018-07-01T01:20:04.577Z,0.00
2018-07-01T01:21:04.527Z,0.00
2018-07-01T01:22:04.481Z,0.00
2018-07-01T01:23:04.480Z,0.00
2018-07-01T01:24:04.420Z,0.00
2018-07-01T01:25:04.343Z,0.00
2018-07-01T01:26:04.298Z,0.00
2018-07-01T01:27:04.251Z,0.00
2018-07-01T01:28:04.235Z,0.00
2018-07-01T01:29:04.154Z,0.00
2018-07-01T01:30:04.109Z,0.00
2018-07-01T01:31:04.066Z,0.00
2018-07-01T01:32:04.013Z,0.00
2018-07-01T01:33:03.992Z,0.00
2018-07-01T01:34:03.961Z,0.00
2018-07-01T01:35:03.876Z,0.00
2018-07-01T01:36:03.826Z,0.00
2018-07-01T01:37:03.778Z,0.00
2018-07-01T01:38:03.731Z,0.00
2018-07-01T01:39:03.715Z,0.00
2018-07-01T01:40:03.639Z,0.00
2018-07-01T01:41:03.621Z,0.00
2018-07-01T01:42:03.541Z,0.00
2018-07-01T01:43:03.496Z,0.00
2018-07-01T01:44:03.453Z,0.00
2018-07-01T01:45:03.403Z,0.00
2018-07-01T01:46:03.393Z,0.00
2018-07-01T01:47:03.309Z,0.00
2018-07-01T01:48:03.260Z,0.00
2018-07-01T01:49:03.213Z,0.00
2018-07-01T01:50:03.165Z,0.00
2018-07-01T01:51:03.154Z,0.00
2018-07-01T01:52:03.070Z,0.00
2018-07-01T01:53:03.023Z,0.00
2018-07-01T01:54:02.976Z,0.00
2018-07-01T01:55:02.929Z,0.00
2018-07-01T01:56:02.930Z,0.00
2018-07-01T01:57:02.867Z,0.00
2018-07-01T01:58:02.789Z,0.00
2018-07-01T01:59:02.740Z,0.00
2018-07-01T02:00:02.692Z,0.00
2018-07-01T02:01:02.648Z,0.00
2018-07-01T02:02:02.630Z,0.00
2018-07-01T02:03:02.552Z,0.00
2018-07-01T02:04:02.504Z,0.00
2018-07-01T02:05:02.459Z,0.00
2018-07-01T02:06:02.452Z,0.00
2018-07-01T02:07:02.368Z,0.00
2018-07-01T02:08:02.316Z,0.00
2018-07-01T02:09:02.275Z,0.00
2018-07-01T02:10:02.220Z,0.00
2018-07-01T02:11:02.205Z,0.00
2018-07-01T02:12:02.160Z,0.00
2018-07-01T02:13:02.113Z,0.00
2018-07-01T02:14:02.032Z,0.00
2018-07-01T02:15:01.985Z,0.00
2018-07-01T02:16:01.946Z,0.00
2018-07-01T02:17:01.892Z,0.00
2018-07-01T02:18:01.894Z,0.00
2018-07-01T02:19:01.798Z,0.00
2018-07-01T02:20:01.748Z,0.00
2018-07-01T02:21:01.701Z,0.00
2018-07-01T02:22:01.656Z,0.00
2018-07-01T02:23:01.639Z,0.00
2018-07-01T02:24:01.593Z,0.00
2018-07-01T02:25:01.512Z,0.00
2018-07-01T02:26:01.467Z,0.00
2018-07-01T02:27:01.427Z,0.00
2018-07-01T02:28:01.371Z,0.00
2018-07-01T02:29:01.357Z,0.00
2018-07-01T02:30:01.279Z,0.00
2018-07-01T02:31:01.237Z,0.00
2018-07-01T02:32:01.180Z,0.00
2018-07-01T02:33:01.135Z,0.00
2018-07-01T02:34:01.133Z,0.00
2018-07-01T02:35:01.041Z,0.00
2018-07-01T02:36:00.997Z,0.00
2018-07-01T02:37:00.950Z,0.00
2018-07-01T02:38:00.900Z,0.00
2018-07-01T02:39:00.896Z,0.00
2018-07-01T02:40:00.805Z,0.00
2018-07-01T02:41:00.755Z,0.00
2018-07-01T02:42:00.709Z,0.00
2018-07-01T02:43:00.661Z,0.00
2018-07-01T02:44:00.654Z,0.00
2018-07-01T02:45:00.598Z,0.00
2018-07-01T02:46:00.521Z,0.00
2018-07-01T02:47:00.472Z,0.00
2018-07-01T02:48:00.424Z,0.00
2018-07-01T02:49:00.375Z,0.00
2018-07-01T02:50:00.381Z,0.00
2018-07-01T02:51:00.282Z,0.00
2018-07-01T02:52:00.237Z,0.00
2018-07-01T02:53:00.187Z,0.00
2018-07-01T02:54:00.142Z,0.00
2018-07-01T02:55:00.139Z,0.00
2018-07-01T02:56:00.046Z,0.00
2018-07-01T02:56:59.995Z,0.00
2018-07-01T02:57:59.950Z,0.00
2018-07-01T02:58:59.904Z,0.00
2018-07-01T02:59:59.896Z,0.00
2018-07-01T03:00:59.838Z,0.00
2018-07-01T03:01:59.759Z,0.00
2018-07-01T03:02:59.711Z,0.00
2018-07-01T03:03:59.665Z,0.00
2018-07-01T03:04:59.650Z,0.00
2018-07-01T03:05:59.600Z,0.00
2018-07-01T03:06:59.522Z,0.00
2018-07-01T03:07:59.484Z,0.00
2018-07-01T03:08:59.428Z,0.00
2018-07-01T03:09:59.381Z,0.00
2018-07-01T03:10:59.369Z,0.00
2018-07-01T03:11:59.286Z,0.00
2018-07-01T03:12:59.237Z,0.00
2018-07-01T03:13:59.191Z,0.00
2018-07-01T03:14:59.143Z,5.63
2018-07-01T03:15:59.131Z,5.63
2018-07-01T03:16:59.050Z,5.63
2018-07-01T03:17:59.012Z,5.63
2018-07-01T03:18:58.952Z,5.63
2018-07-01T03:19:58.937Z,5.63
2018-07-01T03:20:58.860Z,5.63
2018-07-01T03:21:58.810Z,5.63
2018-07-01T03:22:58.765Z,5.63
2018-07-01T03:23:58.721Z,5.63
2018-07-01T03:24:58.703Z,5.63
2018-07-01T03:25:58.620Z,5.63
2018-07-01T03:26:58.574Z,11.25
2018-07-01T03:27:58.558Z,11.25
2018-07-01T03:28:58.514Z,11.25
2018-07-01T03:29:58.428Z,11.25
2018-07-01T03:30:58.413Z,11.25
2018-07-01T03:31:58.335Z,11.25
2018-07-01T03:32:58.289Z,11.25
2018-07-01T03:33:58.269Z,11.25
2018-07-01T03:34:58.195Z,11.25
2018-07-01T03:35:58.147Z,11.25
2018-07-01T03:36:58.100Z,16.88
2018-07-01T03:37:58.049Z,16.88
2018-07-01T03:38:58.053Z,16.88
2018-07-01T03:39:57.954Z,16.88
2018-07-01T03:40:57.907Z,16.88
2018-07-01T03:41:57.862Z,16.88
2018-07-01T03:42:57.814Z,16.88
2018-07-01T03:43:57.799Z,16.88
2018-07-01T03:44:57.719Z,16.88
2018-07-01T03:45:57.669Z,22.50
2018-07-01T03:46:57.623Z,22.50
2018-07-01T03:47:57.578Z,22.50
2018-07-01T03:48:57.607Z,22.50
2018-07-01T03:49:57.480Z,22.50
2018-07-01T03:50:57.436Z,22.50
2018-07-01T03:51:57.427Z,22.50
2018-07-01T03:52:57.338Z,22.50
2018-07-01T03:53:57.293Z,22.50
2018-07-01T03:54:57.249Z,28.13
2018-07-01T03:55:57.197Z,28.13
2018-07-01T03:56:57.189Z,28.13
2018-07-01T03:57:57.100Z,28.13
2018-07-01T03:58:57.054Z,28.13
2018-07-01T03:59:57.006Z,28.13
2018-07-01T04:00:56.961Z,28.13
2018-07-01T04:01:56.943Z,28.13
2018-07-01T04:02:56.864Z,28.13
2018-07-01T04:03:56.816Z,33.75
2018-07-01T04:04:56.777Z,33.75
2018-07-01T04:05:56.758Z,33.75
2018-07-01T04:06:56.678Z,33.75
2018-07-01T04:07:56.659Z,33.75
2018-07-01T04:08:56.584Z,33.75
2018-07-01T04:09:56.531Z,33.75
2018-07-01T04:10:56.483Z,33.75
2018-07-01T04:11:56.440Z,33.75
2018-07-01T04:12:56.422Z,39.38
2018-07-01T04:13:56.340Z,39.38
2018-07-01T04:14:56.295Z,39.38
2018-07-01T04:15:56.247Z,39.38
2018-07-01T04:16:56.202Z,39.38
2018-07-01T04:17:56.184Z,39.38
2018-07-01T04:18:56.139Z,39.38
2018-07-01T04:19:56.060Z,39.38
2018-07-01T04:20:56.015Z,39.38
2018-07-01T04:21:55.965Z,39.38
2018-07-01T04:22:55.950Z,39.38
2018-07-01T04:23:55.902Z,45.00
2018-07-01T04:24:55.824Z,45.00
2018-07-01T04:25:55.777Z,45.00
2018-07-01T04:26:55.728Z,45.00
2018-07-01T04:27:55.682Z,45.00
2018-07-01T04:28:55.667Z,45.00
2018-07-01T04:29:55.589Z,45.00
2018-07-01T04:30:55.546Z,45.00
2018-07-01T04:31:55.529Z,45.00
2018-07-01T04:32:55.447Z,45.00
2018-07-01T04:33:55.397Z,45.00
2018-07-01T04:34:55.363Z,45.00
2018-07-01T04:35:55.338Z,50.63
2018-07-01T04:36:55.259Z,50.63
2018-07-01T04:37:55.210Z,50.63
2018-07-01T04:38:55.162Z,50.63
2018-07-01T04:39:55.115Z,50.63
2018-07-01T04:40:55.102Z,50.63
2018-07-01T04:41:55.022Z,50.63
2018-07-01T04:42:54.974Z,50.63
2018-07-01T04:43:54.928Z,50.63
2018-07-01T04:44:54.911Z,50.63
2018-07-01T04:45:54.833Z,50.63
2018-07-01T04:46:54.786Z,50.63
2018-07-01T04:47:54.741Z,56.25
2018-07-01T04:48:54.693Z,56.25
2018-07-01T04:49:54.680Z,56.25
2018-07-01T04:50:54.599Z,56.25
2018-07-01T04:51:54.552Z,56.25
2018-07-01T04:52:54.541Z,56.25
2018-07-01T04:53:54.456Z,56.25
2018-07-01T04:54:54.470Z,56.25
2018-07-01T04:55:54.362Z,56.25
2018-07-01T04:56:54.314Z,56.25
2018-07-01T04:57:54.298Z,56.25
2018-07-01T04:58:54.222Z,56.25
2018-07-01T04:59:54.174Z,61.88
2018-07-01T05:00:54.167Z,61.88
2018-07-01T05:01:54.136Z,61.88
2018-07-01T05:02:54.034Z,61.88
2018-07-01T05:03:53.989Z,61.88
2018-07-01T05:04:53.938Z,61.88
2018-07-01T05:05:53.925Z,61.88
2018-07-01T05:06:53.845Z,61.88
2018-07-01T05:07:53.803Z,61.88
2018-07-01T05:08:53.782Z,61.88
2018-07-01T05:09:53.750Z,61.88
2018-07-01T05:10:53.660Z,61.88
2018-07-01T05:11:53.610Z,61.88
2018-07-01T05:12:53.564Z,67.50
2018-07-01T05:13:53.514Z,67.50
2018-07-01T05:14:53.526Z,67.50
2018-07-01T05:15:53.423Z,67.50
2018-07-01T05:16:53.375Z,67.50
2018-07-01T05:17:53.331Z,67.50
2018-07-01T05:18:53.334Z,67.50
2018-07-01T05:19:53.264Z,67.50
2018-07-01T05:20:53.189Z,67.50
2018-07-01T05:21:53.139Z,67.50
2018-07-01T05:22:53.092Z,67.50
2018-07-01T05:23:53.045Z,67.50
2018-07-01T05:24:53.045Z,67.50
2018-07-01T05:25:52.951Z,73.13
2018-07-01T05:26:52.904Z,73.13
2018-07-01T05:27:52.860Z,73.13
2018-07-01T05:28:52.812Z,73.13
2018-07-01T05:29:52.804Z,73.13
2018-07-01T05:30:52.714Z,73.13
2018-07-01T05:31:52.670Z,73.13
2018-07-01T05:32:52.623Z,73.13
2018-07-01T05:33:52.579Z,73.13
2018-07-01T05:34:52.562Z,73.13
2018-07-01T05:35:52.480Z,73.13
2018-07-01T05:36:52.446Z,73.13
2018-07-01T05:37:52.404Z,73.13
2018-07-01T05:38:52.340Z,78.75
2018-07-01T05:39:52.327Z,78.75
2018-07-01T05:40:52.286Z,78.75
2018-07-01T05:41:52.198Z,78.75
2018-07-01T05:42:52.153Z,78.75
2018-07-01T05:43:52.113Z,78.75
2018-07-01T05:44:52.056Z,78.75
2018-07-01T05:45:52.052Z,78.75
2018-07-01T05:46:51.965Z,78.75
2018-07-01T05:47:51.917Z,78.75
2018-07-01T05:48:51.870Z,78.75
2018-07-01T05:49:51.823Z,78.75
2018-07-01T05:50:51.815Z,78.75
2018-07-01T05:51:51.736Z,84.38
2018-07-01T05:52:51.683Z,84.38
2018-07-01T05:53:51.639Z,84.38
2018-07-01T05:54:51.593Z,84.38
2018-07-01T05:55:51.576Z,84.38
2018-07-01T05:56:51.528Z,84.38
2018-07-01T05:57:51.451Z,84.38
2018-07-01T05:58:51.404Z,84.38
2018-07-01T05:59:51.357Z,84.38
2018-07-01T06:00:51.314Z,84.38
2018-07-01T06:01:51.297Z,84.38
2018-07-01T06:02:51.266Z,84.38
2018-07-01T06:03:51.175Z,84.38
2018-07-01T06:04:51.125Z,84.38
2018-07-01T06:05:51.079Z,84.38
2018-07-01T06:06:51.029Z,90.00
2018-07-01T06:07:51.015Z,90.00
2018-07-01T06:08:50.974Z,90.00
2018-07-01T06:09:50.892Z,90.00
2018-07-01T06:10:50.912Z,90.00
2018-07-01T06:11:50.800Z,90.00
2018-07-01T06:12:50.751Z,90.00
2018-07-01T06:13:50.706Z,90.00
2018-07-01T06:14:50.658Z,90.00
2018-07-01T06:15:50.647Z,90.00
2018-07-01T06:16:50.602Z,95.63
2018-07-01T06:17:50.552Z,95.63
2018-07-01T06:18:50.472Z,95.63
2018-07-01T06:19:50.473Z,95.63
2018-07-01T06:20:50.380Z,95.63
2018-07-01T06:21:50.365Z,95.63
2018-07-01T06:22:50.289Z,95.63
2018-07-01T06:23:50.240Z,95.63
2018-07-01T06:24:50.229Z,95.63
2018-07-01T06:25:50.147Z,101.25
2018-07-01T06:26:50.133Z,101.25
2018-07-01T06:27:50.055Z,101.25
2018-07-01T06:28:50.009Z,101.25
2018-07-01T06:29:49.960Z,101.25
2018-07-01T06:30:49.916Z,101.25
2018-07-01T06:31:49.903Z,101.25
2018-07-01T06:32:49.910Z,101.25
2018-07-01T06:33:49.782Z,101.25
2018-07-01T06:34:49.729Z,101.25
2018-07-01T06:35:49.692Z,101.25
2018-07-01T06:36:49.639Z,101.25
2018-07-01T06:37:49.623Z,101.25
2018-07-01T06:38:49.546Z,101.25
2018-07-01T06:39:49.501Z,101.25
2018-07-01T06:40:49.454Z,106.88
2018-07-01T06:41:49.414Z,106.88
2018-07-01T06:42:49.393Z,106.88
2018-07-01T06:43:49.315Z,106.88
2018-07-01T06:44:49.300Z,106.88
2018-07-01T06:45:49.227Z,106.88
2018-07-01T06:46:49.177Z,106.88
2018-07-01T06:47:49.129Z,106.88
2018-07-01T06:48:49.118Z,106.88
2018-07-01T06:49:49.047Z,106.88
2018-07-01T06:50:49.002Z,106.88
2018-07-01T06:51:48.993Z,106.88
2018-07-01T06:52:48.901Z,106.88
2018-07-01T06:53:48.855Z,106.88
2018-07-01T06:54:48.809Z,106.88
2018-07-01T06:55:48.761Z,106.88
2018-07-01T06:56:48.754Z,106.88
2018-07-01T06:57:48.670Z,112.50
2018-07-01T06:58:48.624Z,112.50
2018-07-01T06:59:48.613Z,112.50
2018-07-01T07:00:48.530Z,112.50
2018-07-01T07:01:48.494Z,112.50
2018-07-01T07:02:48.441Z,112.50
2018-07-01T07:03:48.395Z,112.50
2018-07-01T07:04:48.378Z,112.50
2018-07-01T07:05:48.304Z,112.50
2018-07-01T07:06:48.256Z,112.50
2018-07-01T07:07:48.310Z,112.50
2018-07-01T07:08:48.164Z,112.50
2018-07-01T07:09:48.154Z,112.50
2018-07-01T07:10:48.108Z,112.50
2018-07-01T07:11:48.028Z,112.50
2018-07-01T07:12:47.988Z,112.50
2018-07-01T07:13:47.940Z,112.50
2018-07-01T07:14:47.892Z,112.50
2018-07-01T07:15:47.879Z,112.50
2018-07-01T07:16:47.811Z,112.50
2018-07-01T07:17:47.751Z,112.50
2018-07-01T07:18:47.707Z,112.50
2018-07-01T07:19:47.702Z,112.50
2018-07-01T07:20:47.617Z,118.13
2018-07-01T07:21:47.572Z,118.13
2018-07-01T07:22:47.524Z,118.13
2018-07-01T07:23:47.481Z,118.13
2018-07-01T07:24:47.468Z,118.13
2018-07-01T07:25:47.388Z,118.13
2018-07-01T07:26:47.379Z,118.13
2018-07-01T07:27:47.328Z,118.13
2018-07-01T07:28:47.252Z,118.13
2018-07-01T07:29:47.207Z,123.75
2018-07-01T07:30:47.163Z,123.75
2018-07-01T07:31:47.114Z,123.75
2018-07-01T07:32:47.108Z,123.75
2018-07-01T07:33:47.027Z,123.75
2018-07-01T07:34:46.981Z,123.75
2018-07-01T07:35:46.932Z,123.75
2018-07-01T07:36:46.889Z,123.75
2018-07-01T07:37:46.874Z,129.38
2018-07-01T07:38:46.798Z,129.38
2018-07-01T07:39:46.784Z,129.38
2018-07-01T07:40:46.740Z,129.38
2018-07-01T07:41:46.660Z,129.38
2018-07-01T07:42:46.614Z,129.38
2018-07-01T07:43:46.571Z,135.00
2018-07-01T07:44:46.568Z,135.00
2018-07-01T07:45:46.480Z,135.00
2018-07-01T07:46:46.432Z,135.00
2018-07-01T07:47:46.390Z,135.00
2018-07-01T07:48:46.341Z,140.63
2018-07-01T07:49:46.342Z,140.63
2018-07-01T07:50:46.253Z,140.63
2018-07-01T07:51:46.212Z,140.63
2018-07-01T07:52:46.165Z,140.63
2018-07-01T07:53:46.118Z,140.63
2018-07-01T07:54:46.133Z,140.63
2018-07-01T07:55:46.031Z,140.63
2018-07-01T07:56:45.983Z,140.63
2018-07-01T07:57:45.936Z,146.25
2018-07-01T07:58:45.892Z,146.25
2018-07-01T07:59:45.885Z,146.25
2018-07-01T08:00:45.802Z,146.25
2018-07-01T08:01:45.759Z,146.25
2018-07-01T08:02:45.710Z,151.88
2018-07-01T08:03:45.667Z,157.50
2018-07-01T08:04:45.652Z,151.88
2018-07-01T08:05:45.610Z,151.88
2018-07-01T08:06:45.531Z,157.50
2018-07-01T08:07:45.484Z,157.50
2018-07-01T08:08:45.444Z,157.50
2018-07-01T08:09:45.428Z,163.13
2018-07-01T08:10:45.353Z,163.13
2018-07-01T08:11:45.309Z,168.75
2018-07-01T08:12:45.281Z,168.75
2018-07-01T08:13:45.255Z,168.75
2018-07-01T08:14:45.172Z,168.75
2018-07-01T08:15:45.127Z,168.75
2018-07-01T08:16:45.082Z,174.38
2018-07-01T08:17:45.039Z,174.38
2018-07-01T08:18:45.026Z,180.00
2018-07-01T08:19:44.949Z,180.00
2018-07-01T08:20:44.941Z,185.63
2018-07-01T08:21:44.858Z,185.63
2018-07-01T08:22:44.815Z,191.25
2018-07-01T08:23:44.776Z,191.25
2018-07-01T08:24:44.728Z,191.25
2018-07-01T08:25:44.720Z,196.88
2018-07-01T08:26:44.638Z,196.88
2018-07-01T08:27:44.597Z,196.88
2018-07-01T08:28:44.547Z,196.88
2018-07-01T08:29:44.537Z,196.88
2018-07-01T08:30:44.496Z,208.13
2018-07-01T08:31:44.417Z,202.50
2018-07-01T08:32:44.375Z,208.13
2018-07-01T08:33:44.331Z,208.13
2018-07-01T08:34:44.287Z,208.13
2018-07-01T08:35:44.272Z,213.75
2018-07-01T08:36:44.196Z,213.75
2018-07-01T08:37:44.152Z,219.38
2018-07-01T08:38:44.109Z,219.38
2018-07-01T08:39:44.065Z,225.00
2018-07-01T08:40:44.059Z,225.00
2018-07-01T08:41:43.990Z,219.38
2018-07-01T08:42:43.933Z,230.63
2018-07-01T08:43:43.891Z,225.00
2018-07-01T08:44:43.845Z,230.63
2018-07-01T08:45:43.837Z,230.63
2018-07-01T08:46:43.761Z,236.25
2018-07-01T08:47:43.761Z,236.25
2018-07-01T08:48:43.671Z,241.88
2018-07-01T08:49:43.630Z,241.88
2018-07-01T08:50:43.628Z,241.88
2018-07-01T08:51:43.542Z,241.88
2018-07-01T08:52:43.569Z,247.50
2018-07-01T08:53:43.457Z,247.50
2018-07-01T08:54:43.412Z,247.50
2018-07-01T08:55:43.374Z,253.13
2018-07-01T08:56:43.326Z,247.50
2018-07-01T08:57:43.318Z,247.50
2018-07-01T08:58:43.244Z,253.13
2018-07-01T08:59:43.201Z,253.13
2018-07-01T09:00:43.158Z,253.13
2018-07-01T09:01:43.144Z,258.75
2018-07-01T09:02:43.072Z,258.75
2018-07-01T09:03:43.061Z,258.75
2018-07-01T09:04:43.005Z,258.75
2018-07-01T09:05:42.956Z,258.75
2018-07-01T09:06:42.905Z,258.75
2018-07-01T09:07:42.861Z,264.38
2018-07-01T09:08:42.911Z,264.38
2018-07-01T09:09:42.776Z,264.38
2018-07-01T09:10:42.770Z,264.38
2018-07-01T09:11:42.694Z,264.38
2018-07-01T09:12:42.653Z,264.38
2018-07-01T09:13:42.614Z,270.00
2018-07-01T09:14:42.613Z,270.00
2018-07-01T09:15:42.529Z,270.00
2018-07-01T09:16:42.487Z,270.00
2018-07-01T09:17:42.446Z,270.00
2018-07-01T09:18:42.405Z,270.00
2018-07-01T09:19:42.401Z,275.63
2018-07-01T09:20:42.321Z,270.00
2018-07-01T09:21:42.287Z,275.63
2018-07-01T09:22:42.284Z,275.63
2018-07-01T09:23:42.205Z,275.63
2018-07-01T09:24:42.160Z,275.63
2018-07-01T09:25:42.123Z,275.63
2018-07-01T09:26:42.089Z,275.63
2018-07-01T09:27:42.070Z,281.25
2018-07-01T09:28:42.027Z,275.63
2018-07-01T09:29:41.959Z,275.63
2018-07-01T09:30:41.915Z,275.63
2018-07-01T09:31:41.876Z,281.25
2018-07-01T09:32:41.836Z,275.63
2018-07-01T09:33:41.829Z,275.63
2018-07-01T09:34:41.788Z,275.63
2018-07-01T09:35:41.712Z,275.63
2018-07-01T09:36:41.673Z,275.63
2018-07-01T09:37:41.664Z,275.63
2018-07-01T09:38:41.595Z,275.63
2018-07-01T09:39:41.552Z,275.63
2018-07-01T09:40:41.517Z,275.63
2018-07-01T09:41:41.504Z,275.63
2018-07-01T09:42:41.435Z,275.63
2018-07-01T09:43:41.391Z,275.63
2018-07-01T09:44:41.350Z,281.25
2018-07-01T09:45:41.339Z,281.25
2018-07-01T09:46:41.271Z,281.25
2018-07-01T09:47:41.278Z,281.25
2018-07-01T09:48:41.193Z,281.25
2018-07-01T09:49:41.181Z,281.25
2018-07-01T09:50:41.144Z,281.25
2018-07-01T09:51:41.071Z,281.25
2018-07-01T09:52:41.056Z,281.25
2018-07-01T09:53:40.982Z,281.25
2018-07-01T09:54:40.944Z,281.25
2018-07-01T09:55:40.941Z,281.25
2018-07-01T09:56:40.877Z,286.88
2018-07-01T09:57:40.826Z,286.88
2018-07-01T09:58:40.821Z,281.25
2018-07-01T09:59:40.742Z,281.25
2018-07-01T10:00:40.704Z,281.25
2018-07-01T10:01:40.660Z,281.25
2018-07-01T10:02:40.620Z,281.25
2018-07-01T10:03:40.615Z,281.25
2018-07-01T10:04:40.543Z,281.25
2018-07-01T10:05:40.532Z,281.25
2018-07-01T10:06:40.491Z,286.88
2018-07-01T10:07:40.423Z,286.88
2018-07-01T10:08:40.378Z,286.88
2018-07-01T10:09:40.354Z,286.88
2018-07-01T10:10:40.300Z,286.88
2018-07-01T10:11:40.303Z,286.88
2018-07-01T10:12:40.222Z,292.50
2018-07-01T10:13:40.184Z,286.88
2018-07-01T10:14:40.144Z,286.88
2018-07-01T10:15:40.102Z,286.88
2018-07-01T10:16:40.106Z,286.88
2018-07-01T10:17:40.029Z,286.88
2018-07-01T10:18:39.987Z,286.88
2018-07-01T10:19:39.949Z,286.88
2018-07-01T10:20:39.908Z,286.88
2018-07-01T10:21:39.903Z,286.88
2018-07-01T10:22:39.834Z,286.88
2018-07-01T10:23:39.788Z,286.88
2018-07-01T10:24:39.747Z,286.88
2018-07-01T10:25:39.712Z,292.50
2018-07-01T10:26:39.794Z,292.50
2018-07-01T10:27:39.662Z,292.50
2018-07-01T10:28:39.601Z,298.13
2018-07-01T10:29:39.552Z,298.13
2018-07-01T10:30:39.545Z,292.50
2018-07-01T10:31:39.473Z,292.50
2018-07-01T10:32:39.433Z,292.50
2018-07-01T10:33:39.396Z,292.50
2018-07-01T10:34:39.356Z,298.13
2018-07-01T10:35:39.360Z,292.50
2018-07-01T10:36:39.278Z,292.50
2018-07-01T10:37:39.274Z,292.50
2018-07-01T10:38:39.201Z,292.50
2018-07-01T10:39:39.166Z,292.50
2018-07-01T10:40:39.158Z,292.50
2018-07-01T10:41:39.085Z,292.50
2018-07-01T10:42:39.046Z,292.50
2018-07-01T10:43:39.054Z,292.50
2018-07-01T10:44:38.971Z,292.50
2018-07-01T10:45:38.933Z,292.50
2018-07-01T10:46:38.892Z,292.50
2018-07-01T10:47:38.855Z,292.50
2018-07-01T10:48:38.866Z,292.50
2018-07-01T10:49:38.782Z,292.50
2018-07-01T10:50:38.738Z,298.13
2018-07-01T10:51:38.765Z,292.50
2018-07-01T10:52:38.661Z,292.50
2018-07-01T10:53:38.656Z,298.13
2018-07-01T10:54:38.620Z,292.50
2018-07-01T10:55:38.582Z,298.13
2018-07-01T10:56:38.510Z,298.13
2018-07-01T10:57:38.505Z,298.13
2018-07-01T10:58:38.434Z,303.75
2018-07-01T10:59:38.395Z,298.13
2018-07-01T11:00:38.396Z,298.13
2018-07-01T11:01:38.324Z,298.13
2018-07-01T11:02:38.280Z,298.13
2018-07-01T11:03:38.243Z,298.13
2018-07-01T11:04:38.202Z,298.13
2018-07-01T11:05:38.199Z,298.13
2018-07-01T11:06:38.128Z,298.13
2018-07-01T11:07:38.091Z,298.13
2018-07-01T11:08:38.049Z,298.13
2018-07-01T11:09:38.015Z,298.13
2018-07-01T11:10:38.013Z,298.13
2018-07-01T11:11:37.991Z,292.50
2018-07-01T11:12:37.895Z,292.50
2018-07-01T11:13:37.861Z,292.50
2018-07-01T11:14:37.820Z,292.50
2018-07-01T11:15:37.814Z,292.50
2018-07-01T11:16:37.742Z,292.50
2018-07-01T11:17:37.707Z,292.50
2018-07-01T11:20:09.684Z,292.50
2018-07-01T11:21:09.644Z,292.50
2018-07-01T11:22:09.573Z,292.50
2018-07-01T11:23:09.535Z,292.50
2018-07-01T11:24:09.498Z,292.50
2018-07-01T11:25:09.459Z,292.50
2018-07-01T11:26:09.453Z,292.50
2018-07-01T11:27:09.491Z,292.50
2018-07-01T11:28:09.343Z,292.50
2018-07-01T11:29:09.303Z,292.50
2018-07-01T11:30:09.265Z,292.50
2018-07-01T11:31:09.265Z,292.50
2018-07-01T11:32:09.193Z,292.50
2018-07-01T11:33:09.152Z,292.50
2018-07-01T11:34:09.118Z,292.50
2018-07-01T11:35:09.126Z,292.50
2018-07-01T11:36:09.072Z,298.13
2018-07-01T11:37:09.000Z,292.50
2018-07-01T11:38:09.010Z,292.50
2018-07-01T11:39:08.920Z,292.50
2018-07-01T11:40:08.883Z,292.50
2018-07-01T11:41:08.875Z,292.50
2018-07-01T11:42:08.805Z,286.88
2018-07-01T11:43:08.771Z,286.88
2018-07-01T11:44:08.730Z,286.88
2018-07-01T11:45:08.687Z,286.88
2018-07-01T11:46:08.698Z,286.88
2018-07-01T11:47:08.611Z,286.88
2018-07-01T11:48:08.572Z,286.88
2018-07-01T11:49:08.538Z,292.50
2018-07-01T11:50:08.496Z,286.88
2018-07-01T11:51:08.489Z,286.88
2018-07-01T11:52:08.470Z,286.88
2018-07-01T11:53:08.384Z,286.88
2018-07-01T11:54:08.343Z,286.88
2018-07-01T11:55:08.302Z,286.88
2018-07-01T11:56:08.264Z,286.88
2018-07-01T11:57:08.262Z,286.88
2018-07-01T11:58:08.246Z,286.88
2018-07-01T11:59:08.147Z,286.88
2018-07-01T12:00:08.147Z,286.88
2018-07-01T12:01:08.105Z,286.88
2018-07-01T12:02:08.031Z,286.88
2018-07-01T12:03:07.995Z,286.88
2018-07-01T12:04:07.955Z,286.88
2018-07-01T12:05:16.662Z,286.88
2018-07-01T12:06:07.884Z,286.88
2018-07-01T12:07:07.841Z,286.88
2018-07-01T12:08:07.804Z,286.88
2018-07-01T12:09:07.768Z,286.88
2018-07-01T12:10:07.769Z,286.88
2018-07-01T12:11:07.690Z,286.88
2018-07-01T12:12:07.654Z,286.88
2018-07-01T12:13:07.623Z,286.88
2018-07-01T12:14:07.578Z,286.88
2018-07-01T12:15:07.572Z,286.88
2018-07-01T12:16:07.535Z,286.88
2018-07-01T12:17:07.464Z,286.88
2018-07-01T12:18:07.431Z,281.25
2018-07-01T12:19:07.391Z,281.25
2018-07-01T12:20:07.350Z,281.25
2018-07-01T12:21:07.348Z,281.25
2018-07-01T12:22:07.278Z,281.25
2018-07-01T12:23:07.240Z,281.25
2018-07-01T12:24:07.203Z,281.25
2018-07-01T12:25:07.165Z,281.25
2018-07-01T12:26:07.168Z,281.25
2018-07-01T12:27:07.087Z,281.25
2018-07-01T12:28:07.056Z,281.25
2018-07-01T12:29:07.013Z,281.25
2018-07-01T12:30:06.978Z,281.25
2018-07-01T12:31:06.981Z,286.88
2018-07-01T12:32:06.906Z,281.25
2018-07-01T12:33:06.865Z,281.25
2018-07-01T12:34:06.828Z,281.25
2018-07-01T12:35:06.793Z,281.25
2018-07-01T12:36:06.789Z,281.25
2018-07-01T12:37:06.753Z,281.25
2018-07-01T12:38:06.681Z,281.25
2018-07-01T12:39:06.643Z,281.25
2018-07-01T12:40:06.612Z,281.25
2018-07-01T12:41:06.569Z,281.25
2018-07-01T12:42:06.634Z,281.25
2018-07-01T12:43:06.499Z,281.25
2018-07-01T12:44:06.491Z,281.25
2018-07-01T12:45:06.422Z,281.25
2018-07-01T12:46:06.418Z,281.25
2018-07-01T12:47:06.344Z,281.25
2018-07-01T12:48:06.373Z,281.25